Time;durP1;ratioP1;P1;durP2;ratioP2;P2;SDS_P1;SDS_P2;PMS_P1;PMS_P2;Temp;Humidity;BMP_temperature;BMP_pressure;BME280_temperature;BME280_humidity;BME280_pressure;Samples;Min_cycle;Max_cycle;Signal;HPM_P1;HPM_P2
2023/04/22 10:16:24;;;;;;;2.53;1.93;;;22.00;75.30;;;;;;4901470;29;20420;-86
2023/04/22 10:18:53;;;;;;;2.57;1.90;;;22.00;75.20;;;;;;4901521;29;20437;-87
2023/04/22 10:21:21;;;;;;;2.07;1.87;;;22.10;75.20;;;;;;4901279;29;20445;-86
2023/04/22 10:23:48;;;;;;;5.20;1.70;;;22.10;75.30;;;;;;4901147;29;20440;-86
2023/04/22 10:26:39;;;;;;;2.87;2.03;;;22.10;75.30;;;;;;4900686;29;20452;-86
2023/04/22 10:29:08;;;;;;;2.27;1.97;;;22.20;76.20;;;;;;4900106;29;20456;-88
2023/04/22 10:31:37;;;;;;;1.80;1.70;;;22.20;75.10;;;;;;4899899;29;20457;-87
2023/04/22 10:34:12;;;;;;;2.47;1.50;;;22.20;75.00;;;;;;4900150;29;20983;-88
2023/04/22 10:36:57;;;;;;;2.57;1.80;;;22.20;75.10;;;;;;4900596;29;20476;-87
2023/04/22 10:39:33;;;;;;;2.20;2.00;;;22.20;75.20;;;;;;4900532;29;21027;-92
2023/04/22 10:42:10;;;;;;;3.57;1.80;;;22.10;73.90;;;;;;4901309;29;20524;-94
2023/04/22 10:44:49;;;;;;;1.90;1.80;;;22.10;73.60;;;;;;4901506;29;20448;-86
2023/04/22 10:47:28;;;;;;;2.50;1.70;;;22.10;73.60;;;;;;4899716;29;20456;-87
2023/04/22 10:50:17;;;;;;;1.90;1.60;;;22.00;73.40;;;;;;4899761;29;20457;-86
2023/04/22 10:52:48;;;;;;;2.60;2.23;;;22.10;73.50;;;;;;4900291;29;20476;-87
2023/04/22 10:55:15;;;;;;;3.23;1.80;;;22.20;73.70;;;;;;4900262;29;20448;-87
2023/04/22 10:57:43;;;;;;;2.13;1.87;;;22.20;73.80;;;;;;4900158;29;20500;-87
2023/04/22 11:00:31;;;;;;;2.40;1.90;;;22.30;73.90;;;;;;4899872;29;20459;-87
2023/04/22 11:03:12;;;;;;;3.40;1.97;;;22.50;74.20;;;;;;4906625;29;20475;-90
2023/04/22 11:05:40;;;;;;;7.80;1.80;;;22.40;73.90;;;;;;4919122;29;20455;-86
2023/04/22 11:08:11;;;;;;;2.77;2.13;;;22.40;74.00;;;;;;4919143;29;20450;-88
2023/04/22 11:10:41;;;;;;;3.03;1.97;;;22.40;74.10;;;;;;4918622;29;20478;-88
2023/04/22 11:13:11;;;;;;;1.83;1.50;;;22.40;74.40;;;;;;4918727;29;20932;-87
2023/04/22 11:15:39;;;;;;;2.03;1.60;;;22.40;74.50;;;;;;4918751;29;20952;-87
2023/04/22 11:18:15;;;;;;;3.90;2.17;;;22.50;74.60;;;;;;4918889;29;20497;-89
2023/04/22 11:20:42;;;;;;;2.37;1.50;;;22.50;74.60;;;;;;4917979;29;20546;-87
2023/04/22 11:23:09;;;;;;;1.80;1.60;;;22.60;74.70;;;;;;4918864;29;20459;-89
2023/04/22 11:25:36;;;;;;;2.47;1.73;;;22.60;74.60;;;;;;4918583;29;20452;-88
2023/04/22 11:28:03;;;;;;;2.60;2.03;;;22.60;74.50;;;;;;4918674;29;20512;-86
2023/04/22 11:30:30;;;;;;;2.27;1.70;;;22.50;74.40;;;;;;4918861;29;20447;-85
2023/04/22 11:32:59;;;;;;;2.10;1.50;;;22.50;73.90;;;;;;4919099;29;20443;-82
2023/04/22 11:35:29;;;;;;;2.50;1.83;;;22.40;73.30;;;;;;4918535;29;20495;-83
2023/04/22 11:37:58;;;;;;;3.33;2.10;;;22.40;73.20;;;;;;4918574;29;20479;-88
2023/04/22 11:40:28;;;;;;;3.00;1.90;;;22.30;72.80;;;;;;4902721;29;20468;-88
2023/04/22 11:42:56;;;;;;;1.90;1.70;;;22.30;72.80;;;;;;4918901;29;20935;-94
2023/04/22 11:45:24;;;;;;;3.13;1.70;;;22.40;73.00;;;;;;4919175;29;20864;-88
2023/04/22 11:47:52;;;;;;;4.10;2.10;;;22.40;73.00;;;;;;4918795;29;20466;-88
2023/04/22 11:50:22;;;;;;;3.30;1.87;;;22.40;73.00;;;;;;4918813;29;20448;-93
2023/04/22 11:52:52;;;;;;;3.17;1.90;;;22.40;73.20;;;;;;4918790;29;20448;-94
2023/04/22 11:55:23;;;;;;;2.17;1.60;;;22.40;73.30;;;;;;4918922;29;20781;-95
2023/04/22 11:57:56;;;;;;;1.57;1.47;;;22.40;73.40;;;;;;4919031;29;20484;-96
2023/04/22 12:00:24;;;;;;;3.40;1.57;;;22.40;73.40;;;;;;4922976;29;20444;-87
2023/04/22 12:02:59;;;;;;;3.03;1.80;;;22.40;73.50;;;;;;4925420;29;20490;-91
2023/04/22 12:05:37;;;;;;;5.23;1.73;;;22.40;74.40;;;;;;4928012;29;20427;-92
2023/04/22 12:08:07;;;;;;;2.77;1.70;;;22.40;73.50;;;;;;4928141;29;20436;-87
2023/04/22 12:10:39;;;;;;;1.73;1.63;;;22.40;73.40;;;;;;4925455;29;20471;-90
2023/04/22 12:13:06;;;;;;;3.27;1.90;;;22.30;73.20;;;;;;4917970;29;20527;-89
2023/04/22 12:15:41;;;;;;;4.20;1.70;;;22.30;72.10;;;;;;4916760;29;20452;-87
2023/04/22 12:18:12;;;;;;;2.17;1.60;;;22.30;70.40;;;;;;4917548;29;21009;-85
2023/04/22 12:20:40;;;;;;;1.80;1.53;;;22.30;70.70;;;;;;4924579;29;20432;-88
2023/04/22 12:23:14;;;;;;;2.80;2.00;;;22.10;69.90;;;;;;4921771;29;20447;-88
2023/04/22 12:25:42;;;;;;;3.10;2.10;;;22.10;71.30;;;;;;4918104;29;20455;-88
2023/04/22 12:28:10;;;;;;;2.30;1.47;;;22.00;70.40;;;;;;4917984;29;20939;-88
2023/04/22 12:30:37;;;;;;;7.33;2.73;;;22.20;70.30;;;;;;4917830;29;20447;-87
2023/04/22 12:33:05;;;;;;;1.50;1.40;;;22.00;70.20;;;;;;4917980;29;20458;-88
2023/04/22 12:35:32;;;;;;;4.10;2.00;;;22.00;70.30;;;;;;4900664;29;20565;-87
2023/04/22 12:37:59;;;;;;;3.03;1.77;;;21.90;70.10;;;;;;4917406;29;20495;-87
2023/04/22 12:40:27;;;;;;;2.70;1.77;;;22.00;70.60;;;;;;4917348;29;20478;-87
2023/04/22 12:42:54;;;;;;;1.67;1.57;;;21.90;70.20;;;;;;4917726;29;20800;-89
2023/04/22 12:45:22;;;;;;;2.90;1.77;;;21.90;69.80;;;;;;4917656;29;20447;-89
2023/04/22 12:47:52;;;;;;;1.80;1.70;;;21.90;69.70;;;;;;4917436;29;20447;-89
2023/04/22 12:50:19;;;;;;;2.80;1.70;;;21.80;69.70;;;;;;4917435;29;20432;-89
2023/04/22 12:52:46;;;;;;;2.33;1.57;;;21.80;69.80;;;;;;4900666;29;20451;-87
2023/04/22 12:55:13;;;;;;;1.80;1.70;;;21.80;69.80;;;;;;4917103;29;20447;-87
2023/04/22 12:57:41;;;;;;;4.63;2.00;;;21.80;69.80;;;;;;4917201;29;20483;-87
2023/04/22 13:00:13;;;;;;;3.07;1.97;;;21.70;69.80;;;;;;4917165;29;20448;-88
2023/04/22 13:02:40;;;;;;;2.90;2.17;;;21.80;70.00;;;;;;4917164;29;20923;-90
2023/04/22 13:05:08;;;;;;;2.07;1.60;;;21.70;70.00;;;;;;4900796;29;20446;-88
2023/04/22 13:07:35;;;;;;;2.40;1.63;;;21.80;70.40;;;;;;4900551;29;20436;-90
2023/04/22 13:10:02;;;;;;;2.40;1.50;;;21.80;70.70;;;;;;4917151;29;20471;-88
2023/04/22 13:12:29;;;;;;;1.90;1.77;;;21.70;70.50;;;;;;4915929;29;20444;-91
2023/04/22 13:14:57;;;;;;;3.00;1.40;;;21.80;70.90;;;;;;4917250;29;20542;-88
2023/04/22 13:17:25;;;;;;;1.50;1.40;;;21.80;71.20;;;;;;4917278;29;20509;-88
2023/04/22 13:19:51;;;;;;;2.00;1.70;;;21.80;71.20;;;;;;4917091;29;20455;-88
2023/04/22 13:22:18;;;;;;;2.60;1.50;;;21.80;71.30;;;;;;4917205;29;20457;-89
2023/04/22 13:24:45;;;;;;;3.60;1.63;;;21.80;71.20;;;;;;4917294;29;20454;-88
2023/04/22 13:27:13;;;;;;;3.00;1.80;;;21.80;71.30;;;;;;4917182;29;20452;-90
2023/04/22 13:29:40;;;;;;;1.67;1.57;;;21.80;71.30;;;;;;4917175;29;20456;-90
2023/04/22 13:32:08;;;;;;;1.87;1.50;;;21.90;71.10;;;;;;4917215;29;20446;-90
2023/04/22 13:34:35;;;;;;;3.53;1.70;;;21.80;71.00;;;;;;4917231;29;20470;-88
2023/04/22 13:37:02;;;;;;;1.70;1.60;;;21.80;71.10;;;;;;4916934;29;20487;-87
2023/04/22 13:39:30;;;;;;;1.90;1.70;;;22.00;70.90;;;;;;4916971;29;20474;-90
2023/04/22 13:41:57;;;;;;;1.47;1.30;;;21.80;71.30;;;;;;4917189;29;20448;-90
2023/04/22 13:44:23;;;;;;;4.43;1.30;;;21.80;71.20;;;;;;4917023;29;20689;-87
2023/04/22 13:46:50;;;;;;;2.60;1.67;;;21.90;70.90;;;;;;4917911;29;20521;-87
2023/04/22 13:49:19;;;;;;;1.93;1.43;;;21.90;71.30;;;;;;4920625;29;20458;-86
2023/04/22 13:51:46;;;;;;;1.67;1.57;;;21.80;70.80;;;;;;4920808;29;20455;-89
2023/04/22 13:54:13;;;;;;;1.50;1.40;;;21.80;70.80;;;;;;4920612;29;20448;-89
2023/04/22 13:56:39;;;;;;;1.87;1.60;;;21.80;70.80;;;;;;4920894;29;20448;-88
2023/04/22 13:59:06;;;;;;;2.23;1.80;;;21.80;71.30;;;;;;4920408;29;20611;-93
2023/04/22 14:01:34;;;;;;;3.50;1.40;;;21.80;71.70;;;;;;4920717;29;20455;-88
2023/04/22 14:04:01;;;;;;;1.50;1.23;;;21.90;71.90;;;;;;4920361;29;20807;-93
2023/04/22 14:06:29;;;;;;;1.87;1.67;;;22.00;72.10;;;;;;4920517;29;20808;-88
2023/04/22 14:08:56;;;;;;;3.10;1.73;;;21.90;72.00;;;;;;4920297;29;20923;-88
2023/04/22 14:11:23;;;;;;;1.60;1.43;;;22.00;72.20;;;;;;4903771;29;20459;-88
2023/04/22 14:13:51;;;;;;;1.90;1.80;;;21.90;72.10;;;;;;4920368;29;20816;-91
2023/04/22 14:16:18;;;;;;;1.60;1.40;;;22.00;72.30;;;;;;4903950;29;20456;-88
2023/04/22 14:18:46;;;;;;;1.40;1.30;;;22.00;72.30;;;;;;4920421;29;20527;-88
2023/04/22 14:21:13;;;;;;;1.30;1.20;;;22.00;72.40;;;;;;4920359;29;20479;-94
2023/04/22 14:23:42;;;;;;;1.50;1.37;;;22.00;72.40;;;;;;4920278;29;20458;-92
2023/04/22 14:26:10;;;;;;;1.63;1.53;;;22.00;72.40;;;;;;4903282;29;20500;-93
2023/04/22 14:28:40;;;;;;;1.53;1.43;;;22.00;72.40;;;;;;4920120;29;20452;-88
2023/04/22 14:31:08;;;;;;;2.50;1.70;;;22.00;72.50;;;;;;4920234;29;20445;-93
2023/04/22 14:33:35;;;;;;;1.73;1.53;;;22.00;72.40;;;;;;4920004;29;20485;-88
2023/04/22 14:36:02;;;;;;;2.23;1.47;;;22.00;72.60;;;;;;4918670;29;20468;-89
2023/04/22 14:38:29;;;;;;;3.00;1.47;;;22.10;72.60;;;;;;4919711;29;20487;-89
2023/04/22 14:40:57;;;;;;;1.80;1.70;;;22.00;72.60;;;;;;4919948;29;20467;-89
2023/04/22 14:43:24;;;;;;;1.70;1.60;;;22.00;72.60;;;;;;4920106;29;20455;-91
2023/04/22 14:45:51;;;;;;;1.70;1.47;;;22.00;72.70;;;;;;4919794;29;20538;-88
2023/04/22 14:48:18;;;;;;;2.73;1.60;;;22.10;72.70;;;;;;4919722;29;20452;-89
2023/04/22 14:50:45;;;;;;;1.53;1.43;;;21.90;72.60;;;;;;4919831;29;20448;-89
2023/04/22 14:53:12;;;;;;;1.90;1.70;;;22.00;72.70;;;;;;4919773;29;20444;-93
2023/04/22 14:55:39;;;;;;;2.67;1.80;;;21.90;72.60;;;;;;4919876;29;20460;-88
2023/04/22 14:58:07;;;;;;;1.50;1.40;;;22.00;72.80;;;;;;4918893;29;20484;-93
2023/04/22 15:00:34;;;;;;;3.67;1.80;;;21.90;72.80;;;;;;4919213;29;20451;-88
2023/04/22 15:03:00;;;;;;;1.80;1.33;;;21.90;72.80;;;;;;4919277;29;20571;-89
2023/04/22 15:05:27;;;;;;;1.90;1.50;;;21.90;72.80;;;;;;4919506;29;20446;-91
2023/04/22 15:07:54;;;;;;;1.50;1.40;;;21.90;72.80;;;;;;4919815;29;20790;-89
2023/04/22 15:10:21;;;;;;;1.57;1.47;;;21.90;72.80;;;;;;4919608;29;20479;-94
2023/04/22 15:12:48;;;;;;;1.83;1.73;;;21.90;72.80;;;;;;4919501;29;20444;-94
2023/04/22 15:15:17;;;;;;;2.47;2.00;;;21.90;72.80;;;;;;4919575;29;20444;-89
2023/04/22 15:17:44;;;;;;;1.57;1.40;;;21.90;72.90;;;;;;4919444;29;20892;-89
2023/04/22 15:20:11;;;;;;;1.90;1.40;;;21.90;72.90;;;;;;4919405;29;20455;-90
2023/04/22 15:22:39;;;;;;;1.83;1.50;;;21.90;72.90;;;;;;4919241;29;20452;-89
2023/04/22 15:25:08;;;;;;;1.43;1.33;;;22.00;73.10;;;;;;4919030;29;20452;-94
2023/04/22 15:27:34;;;;;;;1.67;1.30;;;21.90;72.90;;;;;;4919024;29;20452;-89
2023/04/22 15:30:02;;;;;;;2.90;1.67;;;21.80;72.80;;;;;;4919250;29;20457;-94
2023/04/22 15:32:31;;;;;;;1.47;1.23;;;21.90;72.90;;;;;;4919335;29;20455;-94
2023/04/22 15:34:57;;;;;;;1.63;1.50;;;21.90;73.00;;;;;;4918794;29;20531;-94
2023/04/22 15:37:24;;;;;;;1.57;1.47;;;21.80;73.00;;;;;;4918665;29;20450;-89
2023/04/22 15:39:51;;;;;;;1.83;1.73;;;21.90;73.00;;;;;;4919055;29;20468;-91
2023/04/22 15:42:18;;;;;;;1.60;1.47;;;21.90;73.10;;;;;;4918839;29;20462;-94
2023/04/22 15:44:45;;;;;;;1.70;1.60;;;21.80;72.90;;;;;;4919041;29;20448;-89
2023/04/22 15:47:12;;;;;;;2.00;1.27;;;21.80;73.00;;;;;;4918831;29;20444;-94
2023/04/22 15:49:40;;;;;;;1.67;1.57;;;21.80;73.00;;;;;;4919017;29;20486;-94
2023/04/22 15:52:07;;;;;;;1.50;1.30;;;21.80;73.00;;;;;;4918656;29;20801;-94
2023/04/22 15:54:34;;;;;;;1.20;1.10;;;21.80;72.90;;;;;;4918907;29;20522;-90
2023/04/22 15:57:01;;;;;;;1.60;1.50;;;21.80;72.90;;;;;;4929171;29;20447;-96
2023/04/22 15:59:28;;;;;;;1.50;1.40;;;21.80;72.80;;;;;;4927321;29;20547;-94
2023/04/22 16:01:55;;;;;;;1.73;1.23;;;21.90;72.80;;;;;;4918194;29;20989;-88
2023/04/22 16:04:22;;;;;;;2.90;1.30;;;21.90;72.60;;;;;;4918458;29;20519;-93
2023/04/22 16:06:50;;;;;;;2.37;1.20;;;21.80;70.90;;;;;;4919274;29;20448;-88
2023/04/22 16:09:17;;;;;;;2.07;1.40;;;21.80;72.00;;;;;;4918498;29;20566;-93
2023/04/22 16:11:44;;;;;;;3.20;1.53;;;21.80;71.60;;;;;;4917538;29;20447;-91
2023/04/22 16:14:11;;;;;;;2.33;1.30;;;21.80;71.20;;;;;;4918403;29;20459;-94
2023/04/22 16:16:39;;;;;;;1.80;1.33;;;21.80;71.90;;;;;;4919159;29;20535;-88
2023/04/22 16:19:07;;;;;;;2.23;1.50;;;21.80;72.80;;;;;;4918078;29;20888;-93
2023/04/22 16:21:34;;;;;;;1.77;1.60;;;21.80;72.00;;;;;;4921539;29;20456;-94
2023/04/22 16:24:03;;;;;;;2.00;1.63;;;21.80;72.70;;;;;;4919066;29;20820;-94
2023/04/22 16:26:30;;;;;;;1.60;1.40;;;21.80;72.10;;;;;;4919398;29;20887;-89
2023/04/22 16:28:57;;;;;;;3.10;1.53;;;21.80;72.30;;;;;;4919185;29;20555;-89
2023/04/22 16:31:23;;;;;;;5.43;2.27;;;21.90;72.40;;;;;;4922968;29;20461;-95
2023/04/22 16:33:51;;;;;;;2.27;1.50;;;21.80;72.30;;;;;;4918343;29;20451;-95
2023/04/22 16:36:17;;;;;;;1.73;1.63;;;21.80;72.40;;;;;;4918685;29;20459;-96
2023/04/22 16:38:44;;;;;;;5.20;2.00;;;21.80;72.40;;;;;;4918484;29;20498;-89
2023/04/22 16:41:14;;;;;;;3.70;1.67;;;21.80;72.50;;;;;;4918343;29;20459;-96
2023/04/22 16:43:41;;;;;;;2.60;1.50;;;21.80;72.60;;;;;;4918227;29;20474;-89
2023/04/22 16:46:07;;;;;;;2.17;1.60;;;21.80;72.60;;;;;;4918469;29;20447;-95
2023/04/22 16:48:34;;;;;;;1.57;1.30;;;21.80;72.60;;;;;;4918499;29;20457;-91
2023/04/22 16:51:01;;;;;;;1.43;1.33;;;21.80;72.70;;;;;;4918624;29;20871;-95
2023/04/22 16:53:28;;;;;;;4.03;1.60;;;21.80;72.70;;;;;;4918383;29;20448;-89
2023/04/22 16:55:55;;;;;;;1.70;1.50;;;21.90;72.90;;;;;;4918199;29;20451;-89
2023/04/22 16:58:23;;;;;;;4.60;1.80;;;21.80;72.80;;;;;;4918471;29;20495;-95
2023/04/22 17:00:51;;;;;;;2.67;1.60;;;21.80;72.80;;;;;;4918524;29;20467;-94
2023/04/22 17:03:17;;;;;;;1.70;1.60;;;21.80;72.80;;;;;;4918288;29;20476;-95
2023/04/22 17:05:44;;;;;;;5.00;1.60;;;21.80;72.80;;;;;;4918256;29;20943;-89
2023/04/22 17:08:11;;;;;;;2.10;1.63;;;21.90;72.80;;;;;;4918094;29;20479;-89
2023/04/22 17:10:43;;;;;;;1.60;1.50;;;21.90;72.90;;;;;;4918279;29;20550;-89
2023/04/22 17:13:10;;;;;;;2.23;1.43;;;21.80;72.90;;;;;;4918213;29;20448;-95
2023/04/22 17:15:39;;;;;;;2.20;1.50;;;21.80;72.80;;;;;;4918212;29;20447;-89
2023/04/22 17:18:06;;;;;;;2.20;1.60;;;21.80;72.70;;;;;;4918243;29;20483;-95
2023/04/22 17:20:34;;;;;;;2.27;1.43;;;21.90;72.90;;;;;;4918034;29;20458;-88
2023/04/22 17:23:01;;;;;;;1.70;1.47;;;21.80;72.80;;;;;;4921205;29;20928;-96
2023/04/22 17:25:28;;;;;;;1.20;1.10;;;21.70;72.80;;;;;;4922246;29;20839;-89
2023/04/22 17:27:55;;;;;;;1.60;1.50;;;21.70;72.60;;;;;;4922239;29;20454;-89
2023/04/22 17:30:21;;;;;;;1.80;1.50;;;21.90;72.90;;;;;;4922193;29;20452;-95
2023/04/22 17:32:50;;;;;;;3.20;1.93;;;21.80;72.90;;;;;;4922133;29;20459;-96
2023/04/22 17:35:17;;;;;;;2.27;1.43;;;21.80;72.80;;;;;;4922051;29;20462;-89
2023/04/22 17:37:43;;;;;;;1.50;1.40;;;21.80;72.80;;;;;;4922014;29;20452;-93
2023/04/22 17:40:11;;;;;;;1.53;1.40;;;21.70;72.80;;;;;;4921797;29;20504;-89
2023/04/22 17:42:37;;;;;;;3.17;1.73;;;21.70;72.70;;;;;;4921708;29;20811;-92
2023/04/22 17:45:05;;;;;;;2.90;1.60;;;21.70;72.80;;;;;;4921603;29;20551;-90
2023/04/22 17:47:32;;;;;;;1.40;1.30;;;21.70;72.80;;;;;;4921484;29;20456;-89
2023/04/22 17:50:00;;;;;;;2.20;1.37;;;21.70;72.80;;;;;;4921506;29;20452;-89
2023/04/22 17:52:27;;;;;;;1.37;1.27;;;21.70;72.80;;;;;;4921380;29;20535;-93
2023/04/22 17:54:53;;;;;;;1.60;1.43;;;21.70;72.80;;;;;;4921117;29;20447;-89
2023/04/22 17:57:20;;;;;;;2.33;1.43;;;21.70;72.80;;;;;;4921236;29;20455;-94
2023/04/22 17:59:47;;;;;;;1.53;1.43;;;21.70;72.80;;;;;;4920766;29;21018;-95
2023/04/22 18:02:14;;;;;;;1.60;1.50;;;21.70;72.80;;;;;;4921515;29;20481;-89
2023/04/22 18:04:41;;;;;;;2.70;1.30;;;21.70;72.80;;;;;;4921306;29;20538;-88
2023/04/22 18:07:09;;;;;;;1.23;1.13;;;21.70;72.80;;;;;;4920815;29;20547;-91
2023/04/22 18:09:36;;;;;;;1.30;1.20;;;21.80;72.90;;;;;;4920917;29;20468;-89
2023/04/22 18:12:03;;;;;;;1.73;1.53;;;21.70;72.80;;;;;;4920950;29;20448;-94
2023/04/22 18:14:30;;;;;;;1.10;0.90;;;21.70;72.80;;;;;;4920672;29;20436;-95
2023/04/22 18:16:56;;;;;;;1.20;1.10;;;21.70;72.80;;;;;;4920560;29;20451;-88
2023/04/22 18:19:23;;;;;;;1.50;1.40;;;21.70;72.80;;;;;;4920799;29;20494;-88
2023/04/22 18:21:50;;;;;;;4.87;1.53;;;21.70;72.90;;;;;;4920569;29;20836;-92
2023/04/22 18:24:18;;;;;;;3.00;1.40;;;21.70;72.90;;;;;;4920374;29;20454;-88
2023/04/22 18:26:45;;;;;;;1.53;1.43;;;21.70;72.90;;;;;;4920412;29;20440;-95
2023/04/22 18:29:12;;;;;;;1.30;1.20;;;21.70;72.90;;;;;;4920659;29;20455;-94
2023/04/22 18:31:39;;;;;;;1.57;1.47;;;21.60;72.80;;;;;;4920645;29;20447;-88
2023/04/22 18:34:07;;;;;;;1.10;1.00;;;21.60;72.80;;;;;;4919362;29;20448;-94
2023/04/22 18:36:33;;;;;;;1.30;1.10;;;21.70;72.80;;;;;;4920986;29;20455;-88
2023/04/22 18:39:03;;;;;;;2.70;1.50;;;21.70;72.80;;;;;;4920002;29;20861;-88
2023/04/22 18:41:31;;;;;;;2.53;1.20;;;21.60;72.80;;;;;;4920910;29;20459;-95
2023/04/22 18:43:58;;;;;;;1.80;1.70;;;21.60;73.60;;;;;;4920013;29;20497;-88
2023/04/22 18:46:25;;;;;;;1.30;1.10;;;21.80;73.10;;;;;;4920284;29;20447;-94
2023/04/22 18:48:52;;;;;;;1.50;1.40;;;21.60;72.70;;;;;;4919985;29;20460;-89
2023/04/22 18:51:19;;;;;;;1.23;1.10;;;21.70;73.00;;;;;;4920114;29;20458;-94
2023/04/22 18:53:47;;;;;;;1.40;1.00;;;21.60;72.90;;;;;;4920027;29;20454;-88
2023/04/22 18:56:14;;;;;;;1.40;1.30;;;21.60;72.80;;;;;;4919882;29;20462;-89
2023/04/22 18:58:42;;;;;;;2.20;1.30;;;21.60;72.80;;;;;;4919688;29;20455;-88
2023/04/22 19:01:10;;;;;;;2.27;1.20;;;21.60;72.70;;;;;;4919579;29;20456;-95
2023/04/22 19:03:37;;;;;;;1.90;1.40;;;21.70;72.90;;;;;;4919310;29;21090;-92
2023/04/22 19:06:05;;;;;;;1.47;1.37;;;21.60;73.50;;;;;;4919708;29;20546;-89
2023/04/22 19:08:32;;;;;;;1.20;1.10;;;21.60;72.70;;;;;;4919508;29;20452;-95
2023/04/22 19:10:59;;;;;;;1.33;1.23;;;21.60;72.80;;;;;;4919237;29;20443;-88
2023/04/22 19:13:26;;;;;;;2.73;1.17;;;21.60;72.80;;;;;;4902983;29;20935;-88
2023/04/22 19:15:54;;;;;;;1.60;1.20;;;21.60;72.80;;;;;;4902950;29;20506;-93
2023/04/22 19:18:21;;;;;;;1.50;1.37;;;21.60;72.90;;;;;;4920813;29;20466;-88
2023/04/22 19:20:48;;;;;;;1.40;1.20;;;21.60;72.80;;;;;;4919681;29;20488;-88
2023/04/22 19:23:15;;;;;;;1.33;1.23;;;21.60;72.90;;;;;;4902774;29;20942;-88
2023/04/22 19:25:42;;;;;;;1.30;1.20;;;21.60;72.80;;;;;;4919515;29;20813;-88
2023/04/22 19:28:09;;;;;;;1.30;1.20;;;21.60;73.00;;;;;;4902742;29;20487;-95
2023/04/22 19:30:36;;;;;;;1.67;1.20;;;21.60;73.00;;;;;;4919416;29;20448;-88
2023/04/22 19:33:05;;;;;;;1.50;1.40;;;21.60;73.00;;;;;;4902886;29;20452;-88
2023/04/22 19:35:32;;;;;;;3.67;1.17;;;21.60;72.40;;;;;;4918892;29;20452;-89
2023/04/22 19:38:00;;;;;;;1.30;1.20;;;21.60;72.30;;;;;;4919218;29;20455;-89
2023/04/22 19:40:27;;;;;;;1.97;1.27;;;21.50;72.50;;;;;;4919528;29;20534;-87
2023/04/22 19:42:54;;;;;;;3.27;1.50;;;21.60;72.80;;;;;;4919413;29;20455;-95
2023/04/22 19:45:21;;;;;;;5.00;1.30;;;21.50;72.90;;;;;;4918878;29;20448;-95
2023/04/22 19:47:48;;;;;;;6.33;1.40;;;21.60;73.10;;;;;;4919169;29;20530;-90
2023/04/22 19:50:17;;;;;;;2.23;1.40;;;21.50;72.90;;;;;;4919044;29;20449;-91
2023/04/22 19:52:46;;;;;;;3.00;1.43;;;21.60;73.10;;;;;;4918762;29;20636;-90
2023/04/22 19:55:13;;;;;;;1.83;1.73;;;21.50;73.00;;;;;;4918724;29;20454;-94
2023/04/22 19:57:42;;;;;;;7.23;1.77;;;21.60;73.00;;;;;;4918911;29;20456;-88
2023/04/22 20:00:10;;;;;;;2.17;1.33;;;21.50;73.00;;;;;;4918473;29;20519;-90
2023/04/22 20:02:38;;;;;;;2.37;1.53;;;21.60;73.00;;;;;;4918346;29;20494;-88
2023/04/22 20:05:06;;;;;;;1.80;1.30;;;21.60;72.90;;;;;;4918773;29;20458;-92
2023/04/22 20:07:35;;;;;;;2.17;1.43;;;21.60;72.90;;;;;;4918306;29;20544;-89
2023/04/22 20:10:04;;;;;;;2.23;1.70;;;21.60;72.90;;;;;;4918259;29;20837;-89
2023/04/22 20:12:31;;;;;;;2.57;1.50;;;21.60;72.80;;;;;;4919040;29;20440;-87
2023/04/22 20:14:59;;;;;;;1.77;1.30;;;21.60;72.80;;;;;;4919786;29;20452;-88
2023/04/22 20:17:26;;;;;;;4.40;1.33;;;21.60;72.90;;;;;;4922422;29;20472;-88
2023/04/22 20:19:54;;;;;;;1.40;1.27;;;21.60;72.90;;;;;;4922405;29;20496;-93
2023/04/22 20:22:23;;;;;;;1.70;1.20;;;21.60;72.80;;;;;;4922737;29;20924;-95
2023/04/22 20:24:59;;;;;;;2.07;1.20;;;21.60;73.00;;;;;;4920060;29;20439;-93
2023/04/22 20:27:26;;;;;;;4.23;1.40;;;21.60;73.00;;;;;;4921871;29;20487;-86
2023/04/22 20:29:53;;;;;;;2.60;1.63;;;21.60;73.00;;;;;;4923034;29;20527;-95
2023/04/22 20:32:20;;;;;;;1.60;1.10;;;21.60;73.00;;;;;;4924074;29;20443;-94
2023/04/22 20:34:48;;;;;;;2.00;1.40;;;21.60;72.90;;;;;;4919913;29;20449;-88
2023/04/22 20:37:18;;;;;;;1.53;1.23;;;21.60;73.00;;;;;;4919947;29;20454;-89
2023/04/22 20:39:47;;;;;;;4.73;1.20;;;21.60;73.10;;;;;;4921870;29;20483;-88
2023/04/22 20:42:16;;;;;;;2.37;1.40;;;21.60;73.10;;;;;;4922238;29;20452;-88
2023/04/22 20:44:43;;;;;;;1.40;1.00;;;21.60;74.10;;;;;;4922314;29;20471;-87
2023/04/22 20:47:10;;;;;;;1.93;1.30;;;21.60;73.30;;;;;;4919407;29;20440;-96
2023/04/22 20:49:39;;;;;;;4.07;1.70;;;21.60;73.20;;;;;;4917650;29;20452;-94
2023/04/22 20:52:07;;;;;;;1.90;1.43;;;21.60;73.20;;;;;;4917742;29;20456;-89
2023/04/22 20:54:34;;;;;;;1.40;1.17;;;21.60;73.30;;;;;;4924350;29;20474;-87
2023/04/22 20:57:02;;;;;;;1.70;1.57;;;21.60;73.40;;;;;;4935045;29;20486;-87
2023/04/22 20:59:30;;;;;;;7.43;1.47;;;21.60;73.50;;;;;;4936248;29;21001;-92
2023/04/22 21:02:00;;;;;;;3.67;1.73;;;21.60;73.50;;;;;;4936505;29;20939;-92
2023/04/22 21:04:27;;;;;;;2.83;1.40;;;21.60;73.70;;;;;;4936028;29;21065;-87
2023/04/22 21:06:57;;;;;;;1.63;1.53;;;21.60;73.50;;;;;;4936358;29;20445;-88
2023/04/22 21:09:24;;;;;;;2.67;1.40;;;21.60;73.50;;;;;;4936473;29;20463;-87
2023/04/22 21:11:53;;;;;;;1.73;1.43;;;21.60;73.60;;;;;;4936286;29;20955;-93
2023/04/22 21:14:23;;;;;;;2.07;1.60;;;21.60;73.60;;;;;;4919613;29;20450;-92
2023/04/22 21:16:58;;;;;;;2.63;1.40;;;21.60;73.50;;;;;;4936315;29;20462;-91
2023/04/22 21:19:25;;;;;;;1.43;1.33;;;21.70;73.70;;;;;;4936463;29;20442;-88
2023/04/22 21:21:54;;;;;;;1.90;1.60;;;21.60;73.50;;;;;;4936286;29;20448;-95
2023/04/22 21:24:21;;;;;;;1.30;1.20;;;21.60;73.50;;;;;;4936894;29;20455;-95
2023/04/22 21:26:48;;;;;;;2.50;1.27;;;21.60;73.60;;;;;;4919807;29;20851;-92
2023/04/22 21:29:16;;;;;;;4.70;1.23;;;21.60;73.40;;;;;;4936884;29;20977;-96
2023/04/22 21:31:43;;;;;;;1.93;1.60;;;21.60;73.50;;;;;;4936458;29;20452;-87
2023/04/22 21:34:11;;;;;;;1.60;1.50;;;21.60;73.50;;;;;;4936417;29;20530;-87
2023/04/22 21:36:38;;;;;;;1.60;1.37;;;21.60;73.60;;;;;;4936311;29;20439;-87
2023/04/22 21:39:07;;;;;;;3.53;1.80;;;21.60;73.70;;;;;;4936520;29;20462;-88
2023/04/22 21:41:34;;;;;;;1.67;1.57;;;21.60;73.60;;;;;;4936601;29;20530;-87
2023/04/22 21:44:01;;;;;;;1.77;1.67;;;21.60;73.50;;;;;;4936459;29;20453;-88
2023/04/22 21:46:27;;;;;;;1.60;1.30;;;21.60;73.60;;;;;;4936499;29;20447;-88
2023/04/22 21:48:54;;;;;;;1.20;1.10;;;21.60;73.60;;;;;;4936002;29;20451;-91
2023/04/22 21:51:23;;;;;;;1.43;1.30;;;21.60;73.70;;;;;;4935789;29;20458;-96
2023/04/22 21:53:50;;;;;;;3.50;1.60;;;21.60;73.60;;;;;;4935821;29;20472;-96
2023/04/22 21:56:17;;;;;;;5.00;1.90;;;21.60;73.70;;;;;;4935802;29;20481;-88
2023/04/22 21:58:44;;;;;;;2.13;1.53;;;21.60;73.80;;;;;;4935910;29;20816;-88
2023/04/22 22:01:10;;;;;;;2.57;1.50;;;21.60;73.70;;;;;;4935758;29;20495;-87
2023/04/22 22:03:37;;;;;;;1.37;1.27;;;21.60;73.70;;;;;;4935565;29;20583;-91
2023/04/22 22:06:05;;;;;;;3.37;1.53;;;21.60;73.80;;;;;;4935513;29;20447;-87
2023/04/22 22:08:33;;;;;;;1.77;1.57;;;21.60;73.80;;;;;;4937539;29;20478;-87
2023/04/22 22:11:02;;;;;;;2.27;1.50;;;21.60;73.90;;;;;;4940442;29;20875;-88
2023/04/22 22:13:29;;;;;;;1.70;1.60;;;21.60;73.70;;;;;;4940327;29;20494;-88
2023/04/22 22:15:56;;;;;;;1.50;1.40;;;21.60;73.70;;;;;;4943369;29;20447;-90
2023/04/22 22:18:23;;;;;;;4.70;1.90;;;21.60;73.70;;;;;;4939538;29;20478;-96
2023/04/22 22:20:49;;;;;;;2.03;1.57;;;21.60;73.70;;;;;;4938928;29;20502;-96
2023/04/22 22:23:17;;;;;;;1.90;1.60;;;21.60;73.80;;;;;;4939412;29;20449;-86
2023/04/22 22:25:45;;;;;;;2.17;1.70;;;21.60;73.80;;;;;;4939281;29;20533;-86
2023/04/22 22:28:12;;;;;;;1.77;1.50;;;21.60;73.70;;;;;;4938696;29;20443;-88
2023/04/22 22:30:39;;;;;;;2.07;1.87;;;21.60;73.70;;;;;;4938863;29;20446;-87
2023/04/22 22:33:06;;;;;;;2.83;1.90;;;21.70;73.80;;;;;;4938685;29;20439;-88
2023/04/22 22:35:32;;;;;;;1.60;1.50;;;21.70;73.60;;;;;;4938580;29;20531;-88
2023/04/22 22:37:59;;;;;;;1.70;1.57;;;21.60;73.60;;;;;;4938188;29;20447;-88
2023/04/22 22:40:26;;;;;;;2.37;2.00;;;21.60;73.80;;;;;;4938148;29;20501;-88
2023/04/22 22:42:55;;;;;;;1.70;1.60;;;21.60;73.70;;;;;;4938655;29;20525;-87
2023/04/22 22:45:21;;;;;;;2.80;1.90;;;21.70;73.80;;;;;;4938413;29;20446;-88
2023/04/22 22:47:48;;;;;;;3.23;1.83;;;21.60;73.70;;;;;;4938432;29;20443;-87
2023/04/22 22:50:15;;;;;;;1.97;1.87;;;21.60;73.70;;;;;;4938543;29;20443;-94
2023/04/22 22:52:42;;;;;;;2.43;1.80;;;21.60;73.80;;;;;;4938583;29;20439;-94
2023/04/22 22:55:09;;;;;;;1.87;1.77;;;21.60;74.60;;;;;;4938543;29;20886;-88
2023/04/22 22:57:36;;;;;;;2.27;1.97;;;21.60;73.80;;;;;;4938296;29;20487;-88
2023/04/22 23:00:06;;;;;;;1.83;1.73;;;21.60;73.80;;;;;;4937928;29;20582;-90
2023/04/22 23:02:33;;;;;;;1.80;1.70;;;21.60;73.70;;;;;;4938226;29;20550;-88
2023/04/22 23:05:00;;;;;;;1.97;1.87;;;21.60;73.70;;;;;;4938418;29;20469;-88
2023/04/22 23:07:27;;;;;;;2.80;1.77;;;21.60;73.70;;;;;;4938135;29;20879;-94